Time;durP1;ratioP1;P1;durP2;ratioP2;P2;SDS_P1;SDS_P2;PMS_P1;PMS_P2;Temp;Humidity;BMP_temperature;BMP_pressure;BME280_temperature;BME280_humidity;BME280_pressure;Samples;Min_cycle;Max_cycle;Signal;HPM_P1;HPM_P2
2022/07/27 00:00:34;;;;;;;8.20;4.80;;;;;;;20.07;61.98;100026.94;1738871;81;21502;-59
2022/07/27 00:03:01;;;;;;;6.12;3.95;;;;;;;20.07;62.21;100022.93;1720619;83;21055;-59
2022/07/27 00:05:29;;;;;;;6.78;4.47;;;;;;;20.08;62.00;100030.45;1730987;81;21410;-59
2022/07/27 00:07:56;;;;;;;7.15;4.78;;;;;;;20.02;62.05;100030.70;1746572;80;22499;-59
2022/07/27 00:10:22;;;;;;;6.80;4.30;;;;;;;19.97;62.24;100031.30;1727806;81;21640;-59
2022/07/27 00:12:50;;;;;;;8.45;4.53;;;;;;;19.95;62.32;100027.16;1721017;82;21058;-59
2022/07/27 00:15:18;;;;;;;7.78;4.78;;;;;;;19.91;62.35;100028.05;1731537;81;21012;-60
2022/07/27 00:17:45;;;;;;;8.03;4.62;;;;;;;19.86;62.32;100024.63;1749468;80;21058;-59
2022/07/27 00:20:13;;;;;;;7.08;4.65;;;;;;;19.83;62.34;100018.33;1736365;81;21020;-59
2022/07/27 00:22:40;;;;;;;7.15;4.80;;;;;;;19.78;62.34;100019.41;1746025;80;21043;-59
2022/07/27 00:25:08;;;;;;;6.33;4.30;;;;;;;19.80;62.15;100021.41;1729639;81;21086;-59
2022/07/27 00:27:34;;;;;;;6.45;4.42;;;;;;;19.83;62.01;100021.52;1747191;81;21470;-59
2022/07/27 00:30:02;;;;;;;6.97;4.53;;;;;;;19.80;62.32;100023.23;1735989;81;21435;-59
2022/07/27 00:32:29;;;;;;;7.15;4.58;;;;;;;19.74;62.71;100023.46;1737869;80;21136;-59
2022/07/27 00:34:55;;;;;;;6.40;4.53;;;;;;;19.73;62.87;100020.98;1713063;82;21047;-59
2022/07/27 00:37:22;;;;;;;7.67;4.97;;;;;;;19.72;63.16;100024.17;1747989;80;21514;-59
2022/07/27 00:39:48;;;;;;;6.83;4.97;;;;;;;19.72;63.37;100027.33;1747635;81;22448;-59
2022/07/27 00:42:18;;;;;;;8.30;4.95;;;;;;;19.69;63.27;100029.89;1712352;83;21062;-59
2022/07/27 00:44:44;;;;;;;7.60;4.67;;;;;;;19.62;63.29;100023.16;1731098;82;21101;-59
2022/07/27 00:47:11;;;;;;;7.15;4.75;;;;;;;19.59;63.31;100029.38;1688335;83;21118;-59
2022/07/27 00:49:38;;;;;;;6.70;4.60;;;;;;;19.63;63.17;100025.30;1721424;82;21011;-59
2022/07/27 00:52:05;;;;;;;6.58;4.67;;;;;;;19.63;62.92;100030.13;1743366;81;21066;-59
2022/07/27 00:54:31;;;;;;;6.97;4.25;;;;;;;19.60;62.98;100030.53;1703960;82;21602;-59
2022/07/27 00:56:59;;;;;;;6.75;5.05;;;;;;;19.58;62.99;100027.72;1744295;81;21483;-59
2022/07/27 00:59:25;;;;;;;7.90;5.22;;;;;;;19.57;63.04;100030.05;1721868;82;21537;-59
2022/07/27 01:01:51;;;;;;;7.25;5.28;;;;;;;19.54;63.14;100023.80;1733562;80;21502;-59
2022/07/27 01:04:18;;;;;;;7.80;5.30;;;;;;;19.51;63.16;100028.98;1703414;82;21094;-59
2022/07/27 01:06:44;;;;;;;7.17;4.97;;;;;;;19.46;63.27;100028.73;1709209;82;21062;-59
2022/07/27 01:11:57;;;;;;;5.87;4.30;;;;;;;19.40;63.59;100026.33;1734926;80;21067;-59
2022/07/27 01:14:23;;;;;;;6.42;4.37;;;;;;;19.45;63.69;100029.73;1686341;83;21042;-59
2022/07/27 01:16:50;;;;;;;8.00;4.83;;;;;;;19.45;63.65;100029.25;1693362;82;21117;-59
2022/07/27 01:19:17;;;;;;;6.40;4.50;;;;;;;19.39;63.74;100027.33;1738351;80;21046;-59
2022/07/27 01:21:44;;;;;;;8.10;5.30;;;;;;;19.37;63.84;100029.88;1742076;81;21129;-59
2022/07/27 01:24:11;;;;;;;7.83;5.05;;;;;;;19.35;63.92;100033.22;1750530;82;21134;-59
2022/07/27 01:26:37;;;;;;;7.25;5.33;;;;;;;19.34;63.82;100039.08;1734740;81;21078;-59
2022/07/27 01:29:04;;;;;;;8.88;5.35;;;;;;;19.27;64.10;100027.00;1749557;80;21015;-59
2022/07/27 01:31:31;;;;;;;7.15;5.10;;;;;;;19.25;64.31;100028.22;1749164;81;21098;-59
2022/07/27 01:33:57;;;;;;;6.42;5.03;;;;;;;19.29;64.38;100032.14;1749264;80;21328;-59
2022/07/27 01:36:24;;;;;;;7.87;5.28;;;;;;;19.29;64.48;100020.96;1708524;82;21077;-59
2022/07/27 01:38:50;;;;;;;6.58;4.62;;;;;;;19.28;64.62;100027.81;1739447;82;21039;-59
2022/07/27 01:41:17;;;;;;;7.35;4.97;;;;;;;19.22;64.94;100018.73;1737827;81;21030;-59
2022/07/27 01:43:45;;;;;;;6.72;4.50;;;;;;;19.17;65.21;100014.98;1726331;80;21585;-60
2022/07/27 01:46:12;;;;;;;7.20;4.87;;;;;;;19.12;65.28;100020.36;1739436;81;21125;-59
2022/07/27 01:48:39;;;;;;;7.25;4.40;;;;;;;19.06;65.41;100022.95;1727287;81;21498;-59
2022/07/27 01:51:07;;;;;;;7.83;5.10;;;;;;;19.02;65.66;100020.35;1721073;82;21074;-59
2022/07/27 01:53:34;;;;;;;8.75;6.58;;;;;;;19.07;65.65;100017.95;1744489;82;21077;-59
2022/07/27 01:56:01;;;;;;;11.10;6.25;;;;;;;19.10;65.62;100014.39;1716946;82;21066;-59
2022/07/27 01:58:27;;;;;;;11.80;7.67;;;;;;;19.11;65.46;100015.22;1720071;83;22061;-59
2022/07/27 02:00:54;;;;;;;12.55;8.20;;;;;;;19.10;65.31;100018.91;1703449;82;21566;-59
2022/07/27 02:03:20;;;;;;;18.60;11.48;;;;;;;19.08;65.35;100016.44;1719979;83;21485;-60
2022/07/27 02:05:47;;;;;;;15.60;9.78;;;;;;;19.08;65.32;100019.59;1699842;84;21531;-60
2022/07/27 02:08:14;;;;;;;14.38;8.38;;;;;;;19.06;65.76;100017.13;1694016;84;21084;-59
2022/07/27 02:13:28;;;;;;;9.65;7.05;;;;;;;19.19;65.96;100023.63;1695683;84;21091;-59
2022/07/27 02:15:55;;;;;;;17.73;11.40;;;;;;;19.24;66.04;100022.55;1694760;83;21016;-59
2022/07/27 02:18:22;;;;;;;16.27;12.50;;;;;;;19.25;66.04;100029.03;1677556;82;21079;-59
2022/07/27 02:20:49;;;;;;;20.10;15.63;;;;;;;19.24;66.00;100030.55;1681857;84;21074;-59
2022/07/27 02:23:16;;;;;;;18.40;13.15;;;;;;;19.21;65.86;100033.07;1666196;84;21090;-59
2022/07/27 02:25:42;;;;;;;17.85;12.85;;;;;;;19.18;65.88;100032.63;1682963;84;21119;-60
2022/07/27 02:28:10;;;;;;;12.47;9.38;;;;;;;19.12;66.00;100025.70;1685983;82;21059;-59
2022/07/27 02:30:36;;;;;;;16.42;9.83;;;;;;;19.11;65.87;100029.40;1718278;82;21429;-60
2022/07/27 02:33:04;;;;;;;13.20;8.63;;;;;;;19.09;65.92;100026.06;1711368;83;22232;-59
2022/07/27 02:35:30;;;;;;;15.72;10.63;;;;;;;19.12;65.92;100031.03;1714118;82;21141;-60
2022/07/27 02:37:57;;;;;;;14.90;9.18;;;;;;;19.15;66.10;100029.84;1687557;84;21123;-59
2022/07/27 02:40:24;;;;;;;15.63;10.30;;;;;;;19.14;66.51;100026.03;1676347;84;21055;-59
2022/07/27 02:42:50;;;;;;;13.75;9.78;;;;;;;19.15;66.84;100027.66;1699957;84;21051;-58
2022/07/27 02:45:17;;;;;;;13.83;8.95;;;;;;;19.17;66.73;100037.14;1694076;84;21525;-58
2022/07/27 02:47:45;;;;;;;9.43;6.53;;;;;;;19.18;66.39;100031.30;1694260;83;21069;-58
2022/07/27 02:50:12;;;;;;;9.10;6.15;;;;;;;19.18;66.39;100035.30;1691955;83;21554;-58
2022/07/27 02:52:38;;;;;;;10.32;5.87;;;;;;;19.19;66.24;100033.77;1679947;83;21567;-58
2022/07/27 02:55:07;;;;;;;8.05;6.03;;;;;;;19.16;66.31;100038.66;1678313;85;21202;-58
2022/07/27 02:57:36;;;;;;;8.28;6.22;;;;;;;19.10;66.43;100033.06;1698416;83;21562;-58
2022/07/27 03:00:07;;;;;;;8.65;5.97;;;;;;;19.06;66.49;100034.47;1700410;82;21145;-58
2022/07/27 03:02:34;;;;;;;9.05;5.95;;;;;;;19.04;66.46;100038.31;1683399;83;21066;-58
2022/07/27 03:05:00;;;;;;;9.00;6.22;;;;;;;18.99;66.48;100040.20;1681531;83;21066;-58
2022/07/27 03:07:27;;;;;;;7.72;5.90;;;;;;;19.00;66.66;100039.20;1703337;84;21170;-58
2022/07/27 03:09:53;;;;;;;8.30;6.20;;;;;;;19.04;66.54;100035.13;1706727;83;21011;-58
2022/07/27 03:12:20;;;;;;;6.30;5.05;;;;;;;19.07;66.52;100038.77;1706629;83;21141;-58
2022/07/27 03:14:47;;;;;;;10.68;6.35;;;;;;;19.12;66.65;100040.36;1740464;80;21582;-58
2022/07/27 03:17:14;;;;;;;9.10;6.47;;;;;;;19.17;66.76;100039.81;1678448;85;21075;-58
2022/07/27 03:19:40;;;;;;;7.83;6.10;;;;;;;19.20;66.67;100044.77;1728107;80;21023;-58
2022/07/27 03:22:07;;;;;;;9.20;6.70;;;;;;;19.23;66.65;100053.73;1738309;81;21031;-58
2022/07/27 03:24:35;;;;;;;8.30;6.05;;;;;;;19.24;66.61;100051.89;1704255;82;21240;-58
2022/07/27 03:27:02;;;;;;;8.05;5.60;;;;;;;19.26;66.46;100056.00;1741706;81;20981;-58
2022/07/27 03:29:29;;;;;;;7.03;4.83;;;;;;;19.30;66.36;100052.48;1732380;81;21130;-58
2022/07/27 03:31:55;;;;;;;9.88;6.03;;;;;;;19.31;66.09;100055.45;1728602;82;21051;-58
2022/07/27 03:34:22;;;;;;;8.45;5.65;;;;;;;19.31;66.09;100054.11;1737142;81;21012;-58
2022/07/27 03:36:49;;;;;;;8.03;5.75;;;;;;;19.30;66.26;100049.30;1738284;80;22122;-58
2022/07/27 03:39:16;;;;;;;7.90;5.75;;;;;;;19.31;66.29;100050.94;1735161;81;21043;-58
2022/07/27 03:41:42;;;;;;;7.15;4.97;;;;;;;19.31;66.52;100053.59;1742625;82;21605;-58
2022/07/27 03:44:09;;;;;;;7.92;5.22;;;;;;;19.37;66.51;100059.23;1734318;80;21075;-58
2022/07/27 03:46:36;;;;;;;10.63;5.92;;;;;;;19.46;66.33;100061.56;1741702;81;21039;-58
2022/07/27 03:49:03;;;;;;;8.40;5.42;;;;;;;19.53;66.18;100065.64;1745512;80;22168;-58
2022/07/27 03:51:30;;;;;;;9.00;5.03;;;;;;;19.57;66.28;100064.75;1740315;81;21066;-58
2022/07/27 03:53:57;;;;;;;7.90;5.45;;;;;;;19.61;66.36;100070.05;1734103;80;21565;-58
2022/07/27 03:56:24;;;;;;;11.63;5.75;;;;;;;19.65;66.46;100061.48;1747109;82;21462;-58
2022/07/27 03:58:51;;;;;;;8.95;5.50;;;;;;;19.71;66.52;100062.55;1739506;81;21611;-58
2022/07/27 04:01:18;;;;;;;7.70;5.35;;;;;;;19.78;66.31;100067.47;1741681;80;21921;-58
2022/07/27 04:03:44;;;;;;;9.98;5.90;;;;;;;19.90;66.15;100066.96;1741714;81;21511;-58
2022/07/27 04:06:12;;;;;;;7.62;5.67;;;;;;;20.01;66.13;100067.27;1744847;80;21023;-58
2022/07/27 04:08:39;;;;;;;9.23;5.80;;;;;;;20.13;66.02;100059.56;1746289;80;21043;-58
2022/07/27 04:11:06;;;;;;;9.05;5.87;;;;;;;20.22;65.79;100055.73;1742691;81;21106;-58
2022/07/27 04:13:32;;;;;;;7.42;5.00;;;;;;;20.28;65.51;100051.97;1746564;80;21119;-58
2022/07/27 04:15:59;;;;;;;8.08;5.42;;;;;;;20.35;65.35;100056.33;1750556;82;22250;-58
2022/07/27 04:18:26;;;;;;;6.72;4.60;;;;;;;20.41;65.31;100050.73;1749268;81;21112;-58
2022/07/27 04:20:53;;;;;;;7.25;4.33;;;;;;;20.48;64.85;100055.60;1750408;82;21012;-58
2022/07/27 04:23:20;;;;;;;6.45;4.65;;;;;;;20.56;64.40;100054.60;1743609;81;21019;-58
2022/07/27 04:25:47;;;;;;;8.03;4.87;;;;;;;20.69;64.24;100056.58;1747059;80;21085;-58
2022/07/27 04:28:14;;;;;;;9.00;5.60;;;;;;;20.79;63.97;100055.70;1738922;81;21050;-58
2022/07/27 04:30:41;;;;;;;7.05;4.75;;;;;;;20.84;64.19;100054.59;1747749;80;21047;-58
2022/07/27 04:33:07;;;;;;;8.13;5.28;;;;;;;20.88;64.17;100051.85;1746958;81;21573;-59
2022/07/27 04:35:34;;;;;;;8.15;6.03;;;;;;;20.93;63.91;100058.77;1731709;81;21062;-58
2022/07/27 04:38:01;;;;;;;9.00;5.50;;;;;;;20.96;63.40;100055.70;1719392;82;21094;-58
2022/07/27 04:40:32;;;;;;;6.45;5.00;;;;;;;21.02;63.45;100056.73;1740076;81;21057;-58
2022/07/27 04:43:00;;;;;;;6.60;4.25;;;;;;;21.08;63.33;100055.95;1750073;81;21107;-58
2022/07/27 04:45:27;;;;;;;8.03;4.80;;;;;;;21.19;62.82;100053.20;1748115;80;21051;-58
2022/07/27 04:47:54;;;;;;;7.05;4.60;;;;;;;21.27;62.54;100049.53;1745705;81;21110;-58
2022/07/27 04:50:21;;;;;;;7.35;4.83;;;;;;;21.34;61.61;100054.39;1736734;81;21139;-59
2022/07/27 04:52:48;;;;;;;9.00;4.90;;;;;;;21.37;61.22;100061.17;1740654;81;21041;-59
2022/07/27 04:55:14;;;;;;;10.63;4.55;;;;;;;21.41;60.88;100062.44;1734849;81;21014;-59
2022/07/27 04:57:41;;;;;;;9.53;4.22;;;;;;;21.45;60.68;100064.52;1741345;80;21092;-59
2022/07/27 05:00:09;;;;;;;7.55;4.40;;;;;;;21.51;60.32;100066.91;1740191;81;21097;-59
2022/07/27 05:02:41;;;;;;;6.33;4.08;;;;;;;21.55;59.93;100070.01;1735404;81;22220;-58
2022/07/27 05:05:08;;;;;;;6.25;4.20;;;;;;;21.59;60.08;100073.95;1734888;81;21114;-59
2022/07/27 05:07:35;;;;;;;6.95;3.90;;;;;;;21.63;60.13;100068.48;1738501;80;21106;-58
2022/07/27 05:10:02;;;;;;;7.47;4.28;;;;;;;21.68;59.16;100062.82;1739376;81;21014;-59
2022/07/27 05:12:30;;;;;;;7.22;3.77;;;;;;;21.70;58.36;100066.14;1736760;80;21082;-59
2022/07/27 05:14:57;;;;;;;5.92;3.87;;;;;;;21.75;57.79;100059.34;1723493;81;22063;-59
2022/07/27 05:17:24;;;;;;;7.10;4.30;;;;;;;21.79;57.61;100060.59;1699500;82;21420;-58
2022/07/27 05:19:52;;;;;;;7.85;4.17;;;;;;;21.83;57.39;100057.28;1737724;81;21051;-58
2022/07/27 05:22:18;;;;;;;6.40;4.12;;;;;;;21.88;57.00;100062.03;1742531;80;21071;-59
2022/07/27 05:24:45;;;;;;;7.03;3.67;;;;;;;21.93;56.82;100060.90;1739815;81;21062;-59
2022/07/27 05:27:12;;;;;;;8.05;4.00;;;;;;;22.00;56.70;100063.58;1741340;81;21102;-59
2022/07/27 05:29:39;;;;;;;7.62;4.30;;;;;;;22.10;56.20;100071.21;1730792;80;21051;-58
2022/07/27 05:32:08;;;;;;;6.55;4.35;;;;;;;22.17;56.00;100072.03;1725779;81;21435;-59
2022/07/27 05:34:36;;;;;;;6.80;4.35;;;;;;;22.27;56.99;100080.47;1682569;83;21035;-59
2022/07/27 05:37:03;;;;;;;6.22;3.87;;;;;;;22.41;58.67;100088.05;1698786;84;21074;-59
2022/07/27 05:39:29;;;;;;;7.30;4.45;;;;;;;22.55;59.05;100080.27;1734341;81;21234;-59
2022/07/27 05:41:57;;;;;;;5.42;3.90;;;;;;;22.71;58.98;100082.20;1742353;80;21051;-59
2022/07/27 05:44:24;;;;;;;6.22;4.17;;;;;;;22.84;59.04;100087.53;1735410;81;21122;-59
2022/07/27 05:46:50;;;;;;;6.05;4.08;;;;;;;22.95;58.79;100082.86;1713873;82;21004;-59
2022/07/27 05:49:18;;;;;;;6.45;4.60;;;;;;;23.05;58.85;100085.59;1688914;82;22493;-59
2022/07/27 05:51:45;;;;;;;6.10;3.67;;;;;;;23.15;58.63;100089.53;1738415;80;21138;-59
2022/07/27 05:54:12;;;;;;;5.42;4.03;;;;;;;23.23;58.62;100087.10;1727810;81;21051;-59
2022/07/27 05:56:40;;;;;;;5.87;3.92;;;;;;;23.32;58.53;100086.36;1750632;82;21564;-59
2022/07/27 05:59:06;;;;;;;5.47;3.58;;;;;;;23.38;58.39;100086.83;1706699;82;21548;-59
2022/07/27 06:01:33;;;;;;;7.33;3.92;;;;;;;23.44;58.19;100085.17;1748334;80;21027;-59
2022/07/27 06:03:59;;;;;;;6.35;4.60;;;;;;;23.51;58.23;100086.76;1742489;80;21157;-58
2022/07/27 06:09:12;;;;;;;8.48;4.62;;;;;;;23.75;57.98;100087.03;1743076;81;21062;-59
2022/07/27 06:11:39;;;;;;;9.35;4.10;;;;;;;23.81;58.27;100086.17;1750237;80;21055;-59
2022/07/27 06:14:05;;;;;;;8.23;4.05;;;;;;;23.86;58.21;100087.72;1746885;80;21066;-59
2022/07/27 06:16:33;;;;;;;7.22;4.20;;;;;;;23.91;58.25;100085.20;1737425;81;21075;-59
2022/07/27 06:19:02;;;;;;;5.92;4.12;;;;;;;23.99;58.17;100082.77;1743170;81;21536;-59
2022/07/27 06:21:28;;;;;;;6.87;4.80;;;;;;;24.03;58.08;100084.50;1750160;82;21075;-59
2022/07/27 06:23:55;;;;;;;5.72;3.67;;;;;;;24.06;57.64;100082.72;1748705;81;21000;-59
2022/07/27 06:26:22;;;;;;;6.37;4.30;;;;;;;24.11;57.47;100086.92;1746065;80;21153;-59
2022/07/27 06:28:49;;;;;;;6.62;4.15;;;;;;;24.14;57.27;100083.80;1747448;80;21143;-59
2022/07/27 06:31:15;;;;;;;7.05;3.60;;;;;;;24.22;56.68;100081.34;1747588;81;21488;-59
2022/07/27 06:33:42;;;;;;;7.45;4.70;;;;;;;24.33;56.08;100079.28;1748248;82;21094;-59
2022/07/27 06:36:09;;;;;;;8.33;3.87;;;;;;;24.43;55.54;100080.94;1749208;82;21069;-59
2022/07/27 06:38:36;;;;;;;6.95;4.08;;;;;;;24.54;55.27;100080.72;1750568;82;21072;-59
2022/07/27 06:41:03;;;;;;;7.30;4.28;;;;;;;24.64;54.93;100078.36;1748973;81;21143;-59
2022/07/27 06:43:30;;;;;;;7.03;3.83;;;;;;;24.74;54.47;100085.11;1747841;82;21106;-59
2022/07/27 06:45:58;;;;;;;5.97;3.50;;;;;;;24.80;54.61;100082.88;1747535;80;21589;-59
2022/07/27 06:48:24;;;;;;;6.55;3.35;;;;;;;24.85;54.52;100087.07;1747944;80;21525;-59
2022/07/27 06:50:51;;;;;;;6.70;3.47;;;;;;;24.90;54.74;100085.88;1731711;81;21590;-59
2022/07/27 06:53:19;;;;;;;6.45;3.17;;;;;;;24.98;54.81;100092.30;1754243;81;21508;-59
2022/07/27 06:55:45;;;;;;;6.00;3.05;;;;;;;25.02;55.14;100094.02;1754324;81;21072;-59
2022/07/27 06:58:12;;;;;;;5.45;2.87;;;;;;;25.07;54.69;100093.34;1755245;81;21013;-59
2022/07/27 07:00:39;;;;;;;4.92;3.20;;;;;;;25.11;54.36;100087.80;1752897;81;21040;-59
2022/07/27 07:03:06;;;;;;;5.37;3.27;;;;;;;25.19;53.81;100092.34;1753605;80;21066;-59
2022/07/27 07:05:46;;;;;;;6.45;3.30;;;;;;;25.26;53.13;100089.59;1752124;81;21131;-60
2022/07/27 07:08:13;;;;;;;6.62;3.10;;;;;;;25.33;51.79;100094.36;1751803;81;21105;-59
2022/07/27 07:10:42;;;;;;;4.65;2.87;;;;;;;25.38;51.53;100086.42;1755027;81;21105;-59
2022/07/27 07:13:11;;;;;;;5.28;2.62;;;;;;;25.43;50.94;100085.74;1754811;80;21375;-59
2022/07/27 07:15:39;;;;;;;4.83;2.92;;;;;;;25.50;51.38;100085.15;1751321;81;21091;-60
2022/07/27 07:18:08;;;;;;;4.30;2.40;;;;;;;25.60;50.82;100083.23;1750047;81;21080;-59
2022/07/27 07:20:35;;;;;;;5.12;2.37;;;;;;;25.69;50.18;100080.52;1751209;80;21542;-59
2022/07/27 07:23:04;;;;;;;4.20;2.55;;;;;;;25.77;49.63;100085.58;1755905;81;21090;-59
2022/07/27 07:25:31;;;;;;;5.00;2.25;;;;;;;25.87;48.11;100079.62;1754954;81;21040;-60
2022/07/27 07:27:58;;;;;;;5.42;2.45;;;;;;;25.91;47.77;100078.64;1762921;80;21097;-59
2022/07/27 07:30:26;;;;;;;5.33;2.77;;;;;;;25.98;46.78;100081.26;1708168;82;21192;-59
2022/07/27 07:32:54;;;;;;;5.00;2.45;;;;;;;26.04;46.32;100081.16;1719344;82;21049;-59
2022/07/27 07:35:21;;;;;;;3.90;2.00;;;;;;;26.12;46.04;100078.09;1718329;82;21153;-59
2022/07/27 07:37:47;;;;;;;5.30;2.30;;;;;;;26.21;45.42;100073.70;1716169;83;21470;-59
2022/07/27 07:40:14;;;;;;;4.80;2.47;;;;;;;26.29;45.88;100075.55;1711927;82;21698;-59
2022/07/27 07:42:59;;;;;;;5.33;2.42;;;;;;;26.38;45.19;100073.31;1719105;83;21867;-59
2022/07/27 07:45:28;;;;;;;4.90;2.50;;;;;;;26.46;44.68;100070.77;1699662;82;21050;-59
2022/07/27 07:47:56;;;;;;;5.33;2.55;;;;;;;26.49;44.26;100073.84;1710397;83;21517;-59
2022/07/27 07:50:25;;;;;;;5.15;2.45;;;;;;;26.55;44.07;100068.02;1704691;83;21063;-60
2022/07/27 07:52:52;;;;;;;7.58;2.95;;;;;;;26.61;43.88;100066.25;1709731;83;21071;-60
2022/07/27 07:55:26;;;;;;;4.40;2.25;;;;;;;26.68;43.84;100065.11;1708893;83;21132;-60
2022/07/27 07:57:53;;;;;;;5.55;2.47;;;;;;;26.76;43.99;100068.48;1709381;83;21098;-59
2022/07/27 08:00:19;;;;;;;4.10;2.10;;;;;;;26.78;43.38;100072.61;1708397;83;21574;-59
2022/07/27 08:02:49;;;;;;;4.00;2.08;;;;;;;26.77;43.71;100068.25;1705838;83;21555;-59
2022/07/27 08:05:15;;;;;;;3.98;1.92;;;;;;;26.75;44.30;100071.72;1707804;83;21133;-59
2022/07/27 08:07:43;;;;;;;5.25;2.52;;;;;;;26.74;44.62;100078.70;1704970;82;21176;-59
2022/07/27 08:10:11;;;;;;;4.10;2.15;;;;;;;26.74;44.63;100080.87;1708827;83;21103;-59
2022/07/27 08:12:39;;;;;;;4.50;2.35;;;;;;;26.74;44.01;100080.87;1709602;83;21480;-59
2022/07/27 08:15:08;;;;;;;4.50;2.17;;;;;;;26.75;43.65;100073.58;1709112;83;21126;-59
2022/07/27 08:17:36;;;;;;;4.50;2.42;;;;;;;26.76;43.75;100073.34;1705900;83;21176;-59
2022/07/27 08:20:05;;;;;;;5.87;2.75;;;;;;;26.79;44.49;100075.58;1742132;81;21126;-59
2022/07/27 08:22:32;;;;;;;4.37;2.27;;;;;;;26.82;44.41;100075.11;1742322;80;21118;-59
2022/07/27 08:24:59;;;;;;;4.22;2.30;;;;;;;26.83;43.68;100075.41;1736482;81;21094;-59
2022/07/27 08:27:27;;;;;;;4.75;2.27;;;;;;;26.87;43.67;100074.41;1749152;80;21074;-59
2022/07/27 08:29:54;;;;;;;5.70;2.62;;;;;;;26.94;43.98;100070.22;1746265;80;21086;-59
2022/07/27 08:32:20;;;;;;;4.10;2.33;;;;;;;26.98;45.07;100077.61;1740371;81;22448;-59
2022/07/27 08:34:47;;;;;;;4.78;2.12;;;;;;;27.03;45.26;100074.17;1748274;82;21673;-59
2022/07/27 08:37:13;;;;;;;4.83;2.65;;;;;;;27.08;44.76;100078.86;1744164;81;21576;-59
2022/07/27 08:39:40;;;;;;;4.33;2.50;;;;;;;27.12;44.26;100074.61;1745378;80;21069;-59
2022/07/27 08:42:08;;;;;;;4.00;2.00;;;;;;;27.17;44.26;100074.20;1746728;81;21051;-59
2022/07/27 08:44:40;;;;;;;4.15;2.08;;;;;;;27.23;43.70;100069.20;1748002;82;21409;-59
2022/07/27 08:47:09;;;;;;;5.03;2.75;;;;;;;27.29;43.41;100067.43;1746535;81;21075;-59
2022/07/27 08:49:40;;;;;;;5.30;2.42;;;;;;;27.33;43.09;100061.82;1749065;81;21304;-59
2022/07/27 08:52:09;;;;;;;4.40;2.20;;;;;;;27.39;43.37;100063.56;1749440;80;21075;-59
2022/07/27 08:54:39;;;;;;;5.05;2.42;;;;;;;27.50;43.69;100063.20;1750607;81;21145;-60
2022/07/27 08:57:10;;;;;;;5.25;2.20;;;;;;;27.63;43.80;100059.94;1709190;82;22671;-60
2022/07/27 08:59:37;;;;;;;8.10;2.85;;;;;;;27.74;43.57;100063.92;1744583;82;21059;-59
2022/07/27 09:15:11;;;;;;;5.87;2.02;;;;;;;28.92;42.27;100064.88;1790835;79;22739;-59
2022/07/27 09:17:40;;;;;;;5.20;2.70;;;;;;;29.08;40.96;100068.56;1797484;79;21000;-59
2022/07/27 09:20:10;;;;;;;4.22;2.47;;;;;;;29.18;41.17;100062.48;1794275;78;21929;-59
2022/07/27 09:22:51;;;;;;;5.12;2.22;;;;;;;29.29;40.54;100065.59;1795370;78;21033;-60
2022/07/27 09:25:25;;;;;;;5.22;2.60;;;;;;;29.37;40.02;100065.13;1795539;79;21026;-59
2022/07/27 09:27:54;;;;;;;7.83;2.62;;;;;;;29.45;39.40;100061.13;1791054;78;21090;-59
2022/07/27 09:30:21;;;;;;;5.17;2.40;;;;;;;29.54;40.32;100052.83;1791168;79;21521;-59
2022/07/27 09:33:00;;;;;;;4.72;2.22;;;;;;;29.64;39.83;100052.11;1784950;78;21602;-59
2022/07/27 09:35:29;;;;;;;4.85;2.35;;;;;;;29.73;39.61;100057.87;1788634;78;21041;-59
2022/07/27 09:37:59;;;;;;;4.53;2.27;;;;;;;29.81;39.10;100059.59;1787514;78;21036;-60
2022/07/27 09:40:25;;;;;;;4.65;2.77;;;;;;;29.87;39.19;100055.02;1734082;79;21042;-60
2022/07/27 09:43:12;;;;;;;4.87;2.50;;;;;;;29.86;38.58;100053.92;1793978;79;21414;-60
2022/07/27 09:45:43;;;;;;;3.90;2.02;;;;;;;29.83;38.15;100055.28;1796043;78;21630;-60
2022/07/27 09:48:16;;;;;;;4.92;2.45;;;;;;;29.81;37.61;100058.24;1796072;79;21133;-60
2022/07/27 09:50:59;;;;;;;4.45;2.40;;;;;;;29.75;37.43;100061.95;1795661;79;21009;-60
2022/07/27 09:53:33;;;;;;;4.65;2.15;;;;;;;29.74;37.66;100063.55;1791634;79;21071;-60
2022/07/27 09:56:16;;;;;;;3.80;2.00;;;;;;;29.71;38.30;100060.84;1723823;83;21103;-60
2022/07/27 09:58:48;;;;;;;4.95;2.45;;;;;;;29.71;38.28;100065.45;1739844;80;21223;-60
2022/07/27 10:01:21;;;;;;;5.87;2.17;;;;;;;29.70;38.20;100060.55;1739063;80;21047;-60
2022/07/27 10:03:50;;;;;;;4.10;2.08;;;;;;;29.66;37.96;100068.93;1724816;81;21122;-60
2022/07/27 10:06:17;;;;;;;4.33;2.20;;;;;;;29.60;37.78;100061.81;1724932;82;21653;-60
2022/07/27 10:08:46;;;;;;;3.98;2.10;;;;;;;29.56;37.90;100064.23;1729991;81;21589;-60
2022/07/27 10:11:13;;;;;;;4.85;2.50;;;;;;;29.58;38.29;100061.27;1742186;81;21127;-60
2022/07/27 10:13:40;;;;;;;4.53;2.35;;;;;;;29.63;38.00;100064.02;1736135;80;21103;-60
2022/07/27 10:16:18;;;;;;;4.03;2.20;;;;;;;29.68;38.12;100064.06;1778133;79;21575;-60
2022/07/27 10:18:59;;;;;;;4.45;2.00;;;;;;;29.76;37.90;100062.78;1769462;79;21670;-57
2022/07/27 10:21:26;;;;;;;4.33;2.30;;;;;;;29.88;37.94;100066.71;1767245;78;21002;-60
2022/07/27 10:23:57;;;;;;;4.65;2.67;;;;;;;30.01;37.24;100067.63;1783149;79;21131;-59
2022/07/27 10:26:29;;;;;;;6.20;2.50;;;;;;;30.11;36.84;100062.80;1786400;80;21102;-60
2022/07/27 10:29:00;;;;;;;4.53;2.33;;;;;;;30.13;36.45;100056.59;1782815;78;21039;-60
2022/07/27 10:31:36;;;;;;;4.67;2.30;;;;;;;30.09;36.22;100061.70;1786181;79;21103;-60
2022/07/27 10:34:05;;;;;;;4.15;2.20;;;;;;;30.09;36.34;100061.70;1783626;78;21065;-60
2022/07/27 10:36:43;;;;;;;4.03;2.22;;;;;;;30.09;35.66;100059.53;1768683;80;21083;-60
2022/07/27 10:39:10;;;;;;;3.80;2.12;;;;;;;30.09;36.91;100058.98;1768408;78;20980;-59
2022/07/27 10:41:39;;;;;;;4.03;2.00;;;;;;;30.16;37.16;100059.59;1762715;79;21075;-60
2022/07/27 10:44:25;;;;;;;4.00;2.17;;;;;;;30.26;35.88;100045.28;1752041;80;21035;-60
2022/07/27 10:47:01;;;;;;;4.72;2.08;;;;;;;30.36;35.99;100054.88;1758291;81;21052;-61
2022/07/27 10:49:33;;;;;;;4.25;2.00;;;;;;;30.47;35.47;100052.21;1759956;79;21546;-61
2022/07/27 10:52:01;;;;;;;4.20;2.22;;;;;;;30.50;35.11;100051.14;1773980;78;21038;-60
2022/07/27 10:54:37;;;;;;;4.33;2.30;;;;;;;30.59;35.48;100052.00;1777331;79;21444;-61
2022/07/27 10:57:06;;;;;;;4.55;2.08;;;;;;;30.62;34.13;100051.48;1768813;80;21039;-61
2022/07/27 10:59:45;;;;;;;3.80;2.10;;;;;;;30.56;33.86;100054.69;1778915;79;20983;-58
2022/07/27 11:02:13;;;;;;;4.47;2.20;;;;;;;30.53;34.59;100059.28;1783692;79;21502;-60
2022/07/27 11:04:49;;;;;;;4.53;2.30;;;;;;;30.49;34.98;100048.69;1781229;78;21136;-60
2022/07/27 11:07:21;;;;;;;4.50;2.08;;;;;;;30.50;35.97;100051.69;1774642;78;21023;-60
2022/07/27 11:09:51;;;;;;;4.22;2.20;;;;;;;30.49;36.27;100047.33;1782017;78;21057;-60
2022/07/27 11:12:19;;;;;;;4.03;2.25;;;;;;;30.42;35.96;100055.70;1782678;80;21016;-60
2022/07/27 11:14:52;;;;;;;3.87;1.92;;;;;;;30.35;35.76;100053.20;1781946;79;21059;-60
2022/07/27 11:17:24;;;;;;;4.17;1.90;;;;;;;30.26;36.38;100052.59;1783120;79;21079;-60
2022/07/27 11:19:56;;;;;;;4.00;2.05;;;;;;;30.16;36.14;100056.88;1781316;79;21106;-60
2022/07/27 11:22:38;;;;;;;4.60;2.40;;;;;;;30.08;35.32;100049.78;1779371;80;21554;-60
2022/07/27 11:25:06;;;;;;;4.35;2.58;;;;;;;30.02;36.82;100050.26;1779851;79;21120;-60
2022/07/27 11:27:34;;;;;;;5.08;2.33;;;;;;;29.95;35.81;100055.91;1784561;79;21875;-60
2022/07/27 11:30:01;;;;;;;5.08;2.50;;;;;;;29.96;35.57;100054.03;1754321;79;21100;-60
2022/07/27 11:32:34;;;;;;;3.90;1.92;;;;;;;29.95;35.38;100052.39;1781508;79;21047;-60
2022/07/27 11:35:13;;;;;;;7.45;2.37;;;;;;;29.95;35.78;100051.84;1781527;79;21057;-60
2022/07/27 11:37:40;;;;;;;4.55;2.00;;;;;;;29.95;36.85;100052.39;1781595;80;21100;-60
2022/07/27 11:40:09;;;;;;;4.03;2.33;;;;;;;29.96;37.14;100049.96;1784603;80;21196;-60
2022/07/27 11:42:38;;;;;;;4.55;2.12;;;;;;;30.01;37.97;100054.06;1784768;79;21563;-60
2022/07/27 11:45:06;;;;;;;7.70;2.17;;;;;;;30.05;38.09;100055.17;1781037;79;21044;-60
2022/07/27 11:47:33;;;;;;;5.03;2.35;;;;;;;30.08;37.59;100065.50;1786892;80;21037;-60
2022/07/27 11:50:06;;;;;;;5.80;2.22;;;;;;;30.10;37.61;100060.63;1776132;78;21065;-59